Latest Weather Observations for Falls Creek

IDV60801

Issued at 5:32 pm EDT Thursday 23 February 2017 (issued every 30 minutes, with the page automatically refreshed every 10 minutes)

About weather observations | Map of weather stations | Latest weather observations for VIC | Other Formats
Station Details ID: 083084 Name: FALLS CREEK Lat: -36.87 Lon: 147.28 Height: 1765.0 m
Data from the previous 72 hours. | See also: Recent months at Falls Creek
Date/Time
EDT
Temp
°C
App
Temp
°C
Dew
Point
°C
Rel
Hum
%
Delta-T
°C
Wind Press
QNH
hPa
Press
MSL
hPa
Rain since
9am
mm
Dir  Spd
km/h
Gust
km/h
Spd
kts
Gust
kts
23/05:30pm 19.0 12.1 2.4 33 8.4 NNW 28 39 15 21 1025.1 1017.1 0.0
23/05:02pm 19.4 11.9 1.4 30 8.9 NNW 30 48 16 26 1024.9 1016.8 0.0
23/05:00pm 19.5 11.7 1.9 31 8.8 NNW 32 48 17 26 1025.0 1016.9 0.0
23/04:30pm 19.9 12.4 1.4 29 9.2 NW 30 50 16 27 1024.9 1016.8 0.0
23/04:00pm 19.7 12.1 3.0 33 8.6 NNW 32 57 17 31 1024.9 1016.8 0.0
23/03:58pm 19.6 11.9 2.5 32 8.7 NNW 32 54 17 29 1024.9 1016.8 0.0
23/03:30pm 20.3 14.6 5.1 37 8.2 NNW 24 39 13 21 1025.1 1017.1 0.0
23/03:00pm 20.3 13.9 5.1 37 8.1 NW 28 43 15 23 1025.1 1017.1 0.0
23/02:30pm 19.9 14.2 8.3 47 6.6 NNW 28 50 15 27 1025.1 1017.1 0.0
23/02:22pm 19.2 12.4 5.3 40 7.4 NNW 30 50 16 27 1025.0 1016.9 0.0
23/02:00pm 18.8 13.3 7.6 48 6.2 NNW 26 37 14 20 1025.1 1017.1 0.0
23/01:30pm 18.6 12.7 7.4 48 6.2 NNW 28 48 15 26 1024.9 1016.8 0.0
23/01:28pm 18.8 12.6 6.3 44 6.8 NNW 28 48 15 26 1024.9 1016.8 0.0
23/01:00pm 18.6 13.0 7.1 47 6.3 NNW 26 41 14 22 1025.0 1016.9 0.0
23/12:30pm 18.3 12.9 6.5 46 6.4 NNW 24 39 13 21 1025.0 1016.9 0.0
23/12:00pm 17.7 12.0 5.0 43 6.7 NNW 24 39 13 21 1024.9 1016.8 0.0
23/11:30am 17.9 11.3 4.1 40 7.2 NNW 28 46 15 25 1024.7 1016.7 0.0
23/11:00am 17.8 11.5 4.0 40 7.1 NNW 26 43 14 23 1024.6 1016.6 0.0
23/10:30am 17.4 10.3 3.3 39 7.2 NNW 30 44 16 24 1024.5 1016.5 0.0
23/10:00am 17.1 9.5 2.7 38 7.2 NNW 32 56 17 30 1024.2 1016.1 0.0
23/09:31am 16.5 9.5 1.8 37 7.2 NNW 28 48 15 26 1024.2 1016.1 0.0
23/09:30am 16.5 9.6 2.5 39 7.0 NNW 28 41 15 22 1024.2 1016.1 0.0
23/09:09am 16.3 8.7 0.8 35 7.5 NNW 30 48 16 26 1023.9 1015.8 0.0
23/09:00am 16.0 8.2 1.7 38 7.0 NNW 32 46 17 25 1023.8 1015.7 0.0
23/08:30am 15.1 7.7 1.6 40 6.5 NNW 30 39 16 21 1023.4 1015.3 0.0
23/08:00am 14.5 7.4 1.1 40 6.4 NNW 28 43 15 23 1023.2 1015.1 0.0
23/07:30am 13.9 6.4 1.2 42 6.0 NNW 30 41 16 22 1022.7 1014.6 0.0
23/07:00am 13.6 5.8 1.6 44 5.7 NNW 32 41 17 22 1022.4 1014.2 0.0
23/06:30am 13.4 5.6 2.6 48 5.3 NNW 33 41 18 22 1021.9 1013.7 0.0
23/06:00am 13.4 4.4 2.3 47 5.4 NNW 39 50 21 27 1021.5 1013.4 0.0
23/05:33am 13.6 5.3 2.2 46 5.5 NNW 35 54 19 29 1021.5 1013.4 0.0
23/05:30am 13.6 5.3 2.2 46 5.5 NNW 35 46 19 25 1021.5 1013.4 0.0
23/05:00am 14.3 5.8 0.9 40 6.3 NNW 35 54 19 29 1021.4 1013.3 0.0
23/04:40am 14.8 5.5 0.6 38 6.7 NNW 39 57 21 31 1020.8 1012.6 0.0
23/04:30am 15.0 4.9 0.4 37 6.9 NNW 43 54 23 29 1020.8 1012.6 0.0
23/04:10am 15.0 4.9 0.1 36 7.0 NNW 43 61 23 33 1020.7 1012.5 0.0
23/04:00am 15.0 4.9 0.1 36 7.0 NNW 43 59 23 32 1020.6 1012.4 0.0
23/03:30am 15.2 4.5 0.2 36 7.1 NNW 46 61 25 33 1020.3 1012.2 0.0
23/03:03am 15.2 4.5 0.2 36 7.1 NNW 46 65 25 35 1020.5 1012.3 0.0
23/03:00am 15.3 4.6 0.3 36 7.1 NNW 46 59 25 32 1020.6 1012.4 0.0
23/02:30am 15.3 5.2 0.3 36 7.1 NNW 43 61 23 33 1020.8 1012.6 0.0
23/02:00am 15.6 5.5 0.2 35 7.3 NNW 43 61 23 33 1020.9 1012.8 0.0
23/01:30am 15.7 5.4 0.3 35 7.3 NNW 44 63 24 34 1021.1 1012.9 0.0
23/01:00am 15.6 5.0 0.6 36 7.1 NNW 46 65 25 35 1021.4 1013.3 0.0
23/12:30am 15.8 5.1 0.4 35 7.3 NNW 46 63 25 34 1021.4 1013.3 0.0
23/12:00am 15.9 4.9 0.5 35 7.3 NNW 48 65 26 35 1021.5 1013.4 0.0
 
Date/Time
EDT
Temp
°C
App
Temp
°C
Dew
Point
°C
Rel
Hum
%
Delta-T
°C
Wind Press
QNH
hPa
Press
MSL
hPa
Rain since
9am
mm
Dir  Spd
km/h
Gust
km/h
Spd
kts
Gust
kts
22/11:30pm 16.1 5.4 0.3 34 7.5 NNW 46 59 25 32 1021.5 1013.4 0.0
22/11:00pm 15.9 5.6 0.5 35 7.3 NNW 44 61 24 33 1021.9 1013.7 0.0
22/10:30pm 15.8 5.7 0.4 35 7.3 NNW 43 61 23 33 1022.0 1013.9 0.0
22/10:28pm 15.7 5.6 0.3 35 7.3 NNW 43 61 23 33 1022.1 1014.0 0.0
22/10:00pm 15.7 6.0 0.3 35 7.3 NNW 41 52 22 28 1022.1 1014.0 0.0
22/09:36pm 15.9 6.5 0.1 34 7.5 NNW 39 57 21 31 1022.0 1013.9 0.0
22/09:30pm 15.6 6.2 -0.2 34 7.4 NNW 39 52 21 28 1022.0 1013.9 0.0
22/09:00pm 15.2 6.2 0.2 36 7.0 NNW 37 46 20 25 1021.9 1013.7 0.0
22/08:30pm 15.1 6.6 0.9 38 6.8 NNW 35 44 19 24 1021.9 1013.7 0.0
22/08:00pm 15.1 7.2 2.0 41 6.4 NNW 33 43 18 23 1021.9 1013.7 0.0
22/07:30pm 15.0 7.7 2.5 43 6.2 NNW 30 39 16 21 1021.9 1013.7 0.0
22/07:00pm 15.3 8.6 3.5 45 5.9 NNW 28 41 15 22 1021.9 1013.7 0.0
22/06:30pm 15.7 9.0 3.8 45 6.1 NNW 28 41 15 22 1021.9 1013.7 0.0
22/06:00pm 15.8 8.9 4.5 47 5.8 NNW 30 44 16 24 1021.8 1013.6 0.0
22/05:30pm 15.8 8.6 4.8 48 5.7 N 32 44 17 24 1021.9 1013.7 0.0
22/05:00pm 15.8 9.6 6.0 52 5.2 N 28 43 15 23 1022.3 1014.1 0.0
22/04:30pm 15.8 9.6 6.0 52 5.2 NNW 28 41 15 22 1022.3 1014.1 0.0
22/04:00pm 15.4 8.9 6.4 55 4.8 N 30 43 16 23 1022.5 1014.4 0.0
22/03:46pm 15.3 8.6 5.8 53 5.0 N 30 52 16 28 1022.7 1014.6 0.0
22/03:30pm 15.8 8.9 7.1 56 4.7 NNW 33 48 18 26 1022.7 1014.6 0.0
22/03:21pm 15.5 8.8 5.4 51 5.3 NNW 30 48 16 26 1022.7 1014.6 0.0
22/03:00pm 15.5 8.4 5.7 52 5.2 N 32 44 17 24 1022.6 1014.5 0.0
22/02:30pm 15.2 8.6 4.3 48 5.6 NNW 28 44 15 24 1023.1 1015.0 0.0
22/02:00pm 15.3 9.0 5.8 53 5.0 NNW 28 43 15 23 1023.3 1015.2 0.0
22/01:30pm 14.9 8.2 5.4 53 5.0 NNW 30 44 16 24 1023.3 1015.2 0.0
22/01:00pm 14.7 7.9 7.0 60 4.1 NNW 32 44 17 24 1023.3 1015.2 0.0
22/12:30pm 14.3 7.3 6.2 58 4.3 NNW 32 41 17 22 1023.4 1015.3 0.0
22/12:00pm 13.8 7.0 5.2 56 4.4 NNW 30 41 16 22 1023.9 1015.8 0.0
22/11:30am 13.8 7.1 3.9 51 5.0 NNW 28 41 15 22 1023.9 1015.8 0.0
22/11:00am 13.3 5.8 1.3 44 5.7 NNW 30 43 16 23 1023.7 1015.6 0.0
22/10:30am 13.0 5.0 0.4 42 5.9 NNW 32 39 17 21 1023.8 1015.7 0.0
22/10:00am 12.6 4.9 -0.3 41 5.9 NNW 30 39 16 21 1023.7 1015.6 0.0
22/09:30am 12.0 4.6 -0.5 42 5.7 NNW 28 37 15 20 1023.7 1015.6 0.0
22/09:00am 11.5 4.6 0.0 45 5.2 NNW 26 35 14 19 1023.6 1015.5 0.0
22/08:30am 10.8 3.4 -0.6 45 5.1 NNW 28 33 15 18 1023.3 1015.2 0.0
22/08:00am 10.5 3.4 -1.2 44 5.1 NNW 26 33 14 18 1023.3 1015.2 0.0
22/07:30am 10.1 3.0 -1.3 45 5.0 NNW 26 33 14 18 1023.1 1015.0 0.0
22/07:00am 9.8 2.6 -1.9 44 5.0 NNW 26 33 14 18 1023.0 1014.9 0.0
22/06:30am 9.6 2.0 -2.0 44 5.0 NNW 28 33 15 18 1022.8 1014.7 0.0
22/06:00am 9.5 2.7 -1.8 45 4.8 NNW 24 33 13 18 1022.6 1014.5 0.0
22/05:30am 9.3 3.3 -1.7 46 4.7 NNW 20 28 11 15 1022.6 1014.5 0.0
22/05:00am 9.3 2.9 -1.4 47 4.6 NNW 22 30 12 16 1022.5 1014.4 0.0
22/04:30am 9.5 2.8 -0.9 48 4.6 NNW 24 32 13 17 1022.6 1014.5 0.0
22/04:00am 9.7 2.6 -1.1 47 4.7 NNW 26 33 14 18 1022.6 1014.5 0.0
22/03:30am 10.3 2.4 -1.4 44 5.1 NNW 30 37 16 20 1022.7 1014.6 0.0
22/03:00am 10.5 2.6 -1.5 43 5.2 NNW 30 41 16 22 1022.8 1014.7 0.0
22/02:30am 11.0 2.4 -2.8 38 5.9 NNW 33 48 18 26 1023.0 1014.9 0.0
22/02:00am 11.0 2.9 -3.5 36 6.1 NNW 30 37 16 20 1023.2 1015.1 0.0
22/01:30am 10.7 3.8 -2.7 39 5.7 NNW 24 32 13 17 1023.8 1015.7 0.0
22/01:00am 10.3 4.1 -4.5 35 6.0 NNW 19 22 10 12 1024.2 1016.1 0.0
22/12:30am 10.4 4.6 -4.4 35 6.0 N 17 20 9 11 1024.3 1016.2 0.0
22/12:00am 10.7 4.4 -3.7 36 6.0 N 20 35 11 19 1024.3 1016.2 0.0
 
Date/Time
EDT
Temp
°C
App
Temp
°C
Dew
Point
°C
Rel
Hum
%
Delta-T
°C
Wind Press
QNH
hPa
Press
MSL
hPa
Rain since
9am
mm
Dir  Spd
km/h
Gust
km/h
Spd
kts
Gust
kts
21/11:30pm 10.7 4.3 -2.0 41 5.5 N 22 33 12 18 1024.5 1016.5 0.0
21/11:00pm 10.4 5.2 -2.9 39 5.6 NE 15 22 8 12 1024.6 1016.6 0.0
21/10:30pm 10.0 5.7 0.9 53 4.2 ENE 13 17 7 9 1024.7 1016.7 0.0
21/10:00pm 10.4 5.6 0.4 50 4.5 ENE 15 20 8 11 1024.7 1016.7 0.0
21/09:30pm 9.4 5.4 2.9 64 3.1 ENE 13 20 7 11 1024.7 1016.7 0.0
21/09:00pm 9.6 7.4 5.2 74 2.2 NE 6 7 3 4 1024.6 1016.6 0.0
21/08:30pm 9.5 7.2 4.7 72 2.4 N 6 6 3 3 1024.2 1016.1 0.0
21/08:00pm 9.9 8.0 4.7 70 2.6 N 4 6 2 3 1023.7 1015.6 0.0
21/07:30pm 11.0 8.8 5.5 69 2.8 W 6 7 3 4 1023.7 1015.6 0.0
21/07:00pm 10.5 8.3 5.1 69 2.7 N 6 7 3 4 1023.3 1015.2 0.0
21/06:30pm 11.7 9.6 6.0 68 3.0 NNW 6 9 3 5 1023.3 1015.2 0.0
21/06:00pm 12.5 10.5 6.3 66 3.2 N 6 9 3 5 1023.3 1015.2 0.0
21/05:30pm 13.6 11.4 6.2 61 3.9 WNW 7 15 4 8 1023.2 1015.1 0.0
21/05:00pm 13.4 11.2 6.3 62 3.7 W 7 13 4 7 1023.3 1015.2 0.0
21/04:30pm 13.0 10.5 6.4 64 3.5 N 9 15 5 8 1023.3 1015.2 0.0
21/04:00pm 12.5 8.8 6.5 67 3.1 N 15 22 8 12 1023.3 1015.2 0.0
21/03:30pm 12.0 7.9 6.1 67 3.1 N 17 24 9 13 1023.3 1015.2 0.0
21/03:00pm 12.4 8.9 5.6 63 3.5 NNW 13 19 7 10 1023.6 1015.5 0.0
21/02:30pm 11.4 8.4 6.1 70 2.7 NNW 11 17 6 9 1023.7 1015.6 0.0
21/02:00pm 11.9 8.4 5.3 64 3.4 WNW 13 24 7 13 1023.9 1015.8 0.0
21/01:30pm 11.5 8.6 4.5 62 3.5 WNW 9 17 5 9 1023.7 1015.6 0.0
21/01:00pm 10.8 7.8 6.2 73 2.4 NW 11 19 6 10 1023.7 1015.6 0.0
21/12:30pm 9.8 5.8 4.8 71 2.5 NNE 15 22 8 12 1023.6 1015.5 0.0
21/12:00pm 10.0 6.8 3.1 62 3.3 WNW 9 15 5 8 1023.7 1015.6 0.0
21/11:30am 8.6 5.0 3.2 69 2.6 N 11 19 6 10 1023.6 1015.5 0.0
21/11:00am 7.7 3.9 3.9 77 1.8 NNE 13 19 7 10 1023.4 1015.3 0.0
21/10:30am 7.6 3.0 1.5 65 2.8 NW 15 20 8 11 1023.3 1015.2 0.0
21/10:00am 6.4 2.2 1.5 71 2.2 NW 13 22 7 12 1023.0 1014.9 0.0
21/09:30am 5.6 1.1 1.9 77 1.7 N 15 22 8 12 1022.6 1014.5 0.0
21/09:00am 4.9 1.5 1.7 80 1.4 NNW 9 24 5 13 1022.4 1014.2 0.8
21/08:30am 3.7 -2.0 0.8 81 1.3 WNW 20 32 11 17 1021.8 1013.6 0.8
21/08:00am 2.9 -2.2 0.5 84 1.0 WNW 17 26 9 14 1021.3 1013.1 0.8
21/07:30am 2.4 -2.0 0.3 86 0.9 NW 13 22 7 12 1021.1 1012.9 0.8
21/07:00am 2.0 -2.0 0.5 90 0.6 NNW 11 19 6 10 1020.8 1012.6 0.8
21/06:30am 2.3 -1.7 0.4 87 0.8 NNW 11 24 6 13 1020.5 1012.3 0.8
21/06:00am 2.2 -3.5 0.3 87 0.8 WNW 20 32 11 17 1020.1 1011.9 0.8
21/05:30am 2.5 -4.8 0.2 85 1.0 WNW 28 41 15 22 1019.8 1011.5 0.8
21/05:00am 2.3 -4.9 0.7 89 0.7 WNW 28 37 15 20 1019.2 1010.9 0.8
21/04:30am 2.3 -3.7 1.0 91 0.6 WNW 22 30 12 16 1019.3 1011.0 0.8
21/04:00am 2.3 -4.5 1.0 91 0.6 WNW 26 35 14 19 1019.0 1010.8 0.8
21/03:30am 2.4 -5.2 0.8 89 0.7 WNW 30 37 16 20 1019.0 1010.8 0.8
21/03:00am 2.5 -4.7 0.7 88 0.8 WNW 28 37 15 20 1018.9 1010.7 0.8
21/02:30am 2.4 -4.4 0.5 87 0.8 WNW 26 35 14 19 1018.9 1010.7 0.8
21/02:00am 2.7 -4.5 0.9 88 0.8 W 28 35 15 19 1019.0 1010.8 0.8
21/01:30am 2.7 -4.1 0.8 87 0.8 WNW 26 32 14 17 1019.3 1011.0 0.8
21/01:00am 2.7 -3.7 0.8 87 0.8 WNW 24 33 13 18 1019.3 1011.0 0.8
21/12:30am 2.5 -4.2 1.3 92 0.5 W 26 32 14 17 1019.3 1011.0 0.8
21/12:00am 2.5 -4.1 1.9 96 0.3 W 26 33 14 18 1019.2 1010.9 0.8
 
Date/Time
EDT
Temp
°C
App
Temp
°C
Dew
Point
°C
Rel
Hum
%
Delta-T
°C
Wind Press
QNH
hPa
Press
MSL
hPa
Rain since
9am
mm
Dir  Spd
km/h
Gust
km/h
Spd
kts
Gust
kts
20/11:30pm 2.7 -3.1 2.1 96 0.3 W 22 28 12 15 1019.3 1011.0 0.8
20/11:00pm 3.0 -0.6 2.7 98 0.1 WNW 11 17 6 9 1019.3 1011.0 0.8
20/10:30pm 3.2 -1.2 2.9 98 0.1 NW 15 24 8 13 1019.0 1010.8 0.8
20/10:00pm 3.2 -0.8 2.9 98 0.1 NW 13 22 7 12 1018.7 1010.4 0.8
20/09:30pm 3.1 -0.1 3.0 99 0.0 NW 9 15 5 8 1018.4 1010.2 0.8
20/09:00pm 2.9 0.0 2.8 99 0.0 NW 7 15 4 8 1018.1 1009.8 0.8
20/08:30pm 2.7 -1.0 2.4 98 0.1 WNW 11 20 6 11 1017.6 1009.3 0.8
20/08:00pm 2.8 -1.6 2.5 98 0.1 WNW 15 22 8 12 1017.1 1008.8 0.8
20/07:30pm 3.0 -1.9 2.3 95 0.3 W 17 24 9 13 1016.5 1008.2 0.8
20/07:00pm 3.5 -2.5 3.1 97 0.2 WSW 24 37 13 20 1016.2 1007.9 0.8
20/06:30pm 3.1 -3.0 3.0 99 0.0 W 24 35 13 19 1015.9 1007.6 0.8
20/06:00pm 2.8 -2.9 2.7 99 0.0 W 22 30 12 16 1015.6 1007.2 0.6

Other Formats:

Comma delimited format used in spreadsheet applications
http://www.bom.gov.au/fwo/IDV60801/IDV60801.94903.axf

JavaScript Object Notation format (JSON) in row-major order
http://www.bom.gov.au/fwo/IDV60801/IDV60801.94903.json